Time;durP1;ratioP1;P1;durP2;ratioP2;P2;SDS_P1;SDS_P2;PMS_P1;PMS_P2;Temp;Humidity;BMP_temperature;BMP_pressure;BME280_temperature;BME280_humidity;BME280_pressure;Samples;Min_cycle;Max_cycle;Signal;HPM_P1;HPM_P2
2021/12/01 00:01:07;;;;;;;;;;;;;;;;;;4911714;29;1167;-61
2021/12/01 00:03:33;;;;;;;;;;;;;;;;;;4911638;29;944;-61
2021/12/01 00:05:58;;;;;;;;;;;;;;;;;;4914813;29;960;-60
2021/12/01 00:08:23;;;;;;;;;;;;;;;;;;4914700;29;813;-61
2021/12/01 00:10:49;;;;;;;;;;;;;;;;;;4914771;29;1931;-61
2021/12/01 00:13:15;;;;;;;;;;;;;;;;;;4914863;28;880;-61
2021/12/01 00:15:41;;;;;;;;;;;;;;;;;;4914573;29;908;-61
2021/12/01 00:18:07;;;;;;;;;;;;;;;;;;4914615;29;871;-61
2021/12/01 00:20:33;;;;;;;;;;;;;;;;;;4912832;29;1179;-61
2021/12/01 00:22:59;;;;;;;;;;;;;;;;;;4914603;29;913;-61
2021/12/01 00:25:25;;;;;;;;;;;;;;;;;;4913903;29;881;-61
2021/12/01 00:27:51;;;;;;;;;;;;;;;;;;4914171;29;846;-61
2021/12/01 00:30:17;;;;;;;;;;;;;;;;;;4914126;29;798;-61
2021/12/01 00:32:42;;;;;;;;;;;;;;;;;;4913676;28;1919;-61
2021/12/01 00:35:08;;;;;;;;;;;;;;;;;;4912834;28;860;-61
2021/12/01 00:37:34;;;;;;;;;;;;;;;;;;4913945;29;925;-61
2021/12/01 00:39:59;;;;;;;;;;;;;;;;;;4913995;29;909;-61
2021/12/01 00:42:24;;;;;;;;;;;;;;;;;;4913780;29;1197;-61
2021/12/01 00:44:58;;;;;;;;;;;;;;;;;;4914234;29;897;-61
2021/12/01 00:47:31;;;;;;;;;;;;;;;;;;4913573;29;857;-61
2021/12/01 00:49:57;;;;;;;;;;;;;;;;;;4912522;29;838;-61
2021/12/01 00:52:22;;;;;;;;;;;;;;;;;;4913604;29;1915;-61
2021/12/01 00:54:47;;;;;;;;;;;;;;;;;;4914023;29;877;-61
2021/12/01 00:57:13;;;;;;;;;;;;;;;;;;4913754;29;928;-61
2021/12/01 00:59:38;;;;;;;;;;;;;;;;;;4913510;29;1012;-61
2021/12/01 01:02:03;;;;;;;;;;;;;;;;;;4913677;29;1187;-61
2021/12/01 01:04:28;;;;;;;;;;;;;;;;;;4913425;29;878;-61
2021/12/01 01:06:54;;;;;;;;;;;;;;;;;;4912303;29;929;-61
2021/12/01 01:09:19;;;;;;;;;;;;;;;;;;4913248;29;865;-61
2021/12/01 01:17:19;;;;;;;;;;;;;;;;;;4913646;29;653;-61
2021/12/01 01:19:44;;;;;;;;;;;;;;;;;;4913523;29;1651;-61
2021/12/01 01:22:09;;;;;;;;;;;;;;;;;;4912377;29;1094;-61
2021/12/01 01:24:35;;;;;;;;;;;;;;;;;;4913511;29;905;-61
2021/12/01 01:27:00;;;;;;;;;;;;;;;;;;4914093;29;850;-61
2021/12/01 01:29:26;;;;;;;;;;;;;;;;;;4911971;29;1197;-61
2021/12/01 01:31:54;;;;;;;;;;;;;;;;;;4914191;29;1902;-61
2021/12/01 01:34:19;;;;;;;;;;;;;;;;;;4913580;29;910;-61
2021/12/01 01:36:45;;;;;;;;;;;;;;;;;;4912770;29;1399;-61
2021/12/01 01:39:10;;;;;;;;;;;;;;;;;;4914041;29;921;-61
2021/12/01 01:41:35;;;;;;;;;;;;;;;;;;4913645;29;795;-61
2021/12/01 01:44:01;;;;;;;;;;;;;;;;;;4928365;29;1264;-61
2021/12/01 01:46:36;;;;;;;;;;;;;;;;;;4913492;29;881;-61
2021/12/01 01:49:33;;;;;;;;;;;;;;;;;;4912071;29;1013;-61
2021/12/01 01:51:51;;;;;;;;;;;;;;;;;;4912742;29;1896;-61
2021/12/01 01:54:17;;;;;;;;;;;;;;;;;;4913415;29;903;-61
2021/12/01 01:56:43;;;;;;;;;;;;;;;;;;4912803;29;908;-61
2021/12/01 01:59:09;;;;;;;;;;;;;;;;;;4912909;29;830;-61
2021/12/01 02:01:53;;;;;;;;;;;;;;;;;;4912321;29;1185;-61
2021/12/01 02:04:19;;;;;;;;;;;;;;;;;;4912973;29;888;-61
2021/12/01 02:06:47;;;;;;;;;;;;;;;;;;4913167;29;831;-61
2021/12/01 02:09:12;;;;;;;;;;;;;;;;;;4912834;29;922;-61
2021/12/01 02:11:38;;;;;;;;;;;;;;;;;;4901594;29;1981;-61
2021/12/01 02:14:04;;;;;;;;;;;;;;;;;;4892863;29;1142;-61
2021/12/01 02:16:30;;;;;;;;;;;;;;;;;;4892133;28;1164;-61
2021/12/01 02:18:55;;;;;;;;;;;;;;;;;;4921348;29;1142;-61
2021/12/01 02:21:28;;;;;;;;;;;;;;;;;;4912346;29;921;-61
2021/12/01 02:23:58;;;;;;;;;;;;;;;;;;4912388;29;849;-61
2021/12/01 02:26:24;;;;;;;;;;;;;;;;;;4912540;29;849;-61
2021/12/01 02:28:51;;;;;;;;;;;;;;;;;;4911703;29;1009;-61
2021/12/01 02:31:16;;;;;;;;;;;;;;;;;;4911232;29;1918;-61
2021/12/01 02:33:42;;;;;;;;;;;;;;;;;;4912488;29;976;-61
2021/12/01 02:36:14;;;;;;;;;;;;;;;;;;4912639;29;830;-61
2021/12/01 02:38:41;;;;;;;;;;;;;;;;;;4912227;29;846;-61
2021/12/01 02:41:07;;;;;;;;;;;;;;;;;;4912709;29;854;-62
2021/12/01 02:43:33;;;;;;;;;;;;;;;;;;4911711;29;805;-61
2021/12/01 02:45:58;;;;;;;;;;;;;;;;;;4912596;29;822;-61
2021/12/01 02:48:24;;;;;;;;;;;;;;;;;;4912371;29;854;-61
2021/12/01 02:50:50;;;;;;;;;;;;;;;;;;4911915;29;1964;-61
2021/12/01 02:53:16;;;;;;;;;;;;;;;;;;4912286;29;843;-61
2021/12/01 02:55:49;;;;;;;;;;;;;;;;;;4912316;29;1043;-62
2021/12/01 02:58:16;;;;;;;;;;;;;;;;;;4912766;29;909;-61
2021/12/01 03:00:41;;;;;;;;;;;;;;;;;;4912225;29;822;-62
2021/12/01 03:03:06;;;;;;;;;;;;;;;;;;4910743;29;1364;-61
2021/12/01 03:05:32;;;;;;;;;;;;;;;;;;4912260;29;972;-61
2021/12/01 03:07:57;;;;;;;;;;;;;;;;;;4912229;29;862;-61
2021/12/01 03:10:23;;;;;;;;;;;;;;;;;;4912824;29;924;-61
2021/12/01 03:12:48;;;;;;;;;;;;;;;;;;4912607;29;1915;-61
2021/12/01 03:15:16;;;;;;;;;;;;;;;;;;4927082;29;874;-61
2021/12/01 03:17:43;;;;;;;;;;;;;;;;;;4912529;29;1037;-61
2021/12/01 03:20:14;;;;;;;;;;;;;;;;;;4912543;29;930;-61
2021/12/01 03:22:39;;;;;;;;;;;;;;;;;;4912334;29;837;-61
2021/12/01 03:25:08;;;;;;;;;;;;;;;;;;4912510;29;921;-61
2021/12/01 03:27:36;;;;;;;;;;;;;;;;;;4912062;29;834;-61
2021/12/01 03:30:02;;;;;;;;;;;;;;;;;;4912500;29;824;-62
2021/12/01 03:32:27;;;;;;;;;;;;;;;;;;4912345;29;1910;-61
2021/12/01 03:34:52;;;;;;;;;;;;;;;;;;4911815;29;1012;-61
2021/12/01 03:37:18;;;;;;;;;;;;;;;;;;4912219;29;795;-61
2021/12/01 03:39:43;;;;;;;;;;;;;;;;;;4912051;29;1854;-61
2021/12/01 03:42:08;;;;;;;;;;;;;;;;;;4929912;29;826;-61
2021/12/01 03:44:34;;;;;;;;;;;;;;;;;;4913696;29;1325;-61
2021/12/01 03:46:59;;;;;;;;;;;;;;;;;;4914770;29;979;-61
2021/12/01 03:49:24;;;;;;;;;;;;;;;;;;4914827;29;759;-62
2021/12/01 03:51:50;;;;;;;;;;;;;;;;;;4914403;29;1902;-61
2021/12/01 03:54:15;;;;;;;;;;;;;;;;;;4914911;29;890;-61
2021/12/01 03:56:40;;;;;;;;;;;;;;;;;;4914633;29;838;-61
2021/12/01 03:59:06;;;;;;;;;;;;;;;;;;4915136;29;809;-61
2021/12/01 04:01:32;;;;;;;;;;;;;;;;;;4914569;29;1190;-61
2021/12/01 04:03:58;;;;;;;;;;;;;;;;;;4914374;29;873;-62
2021/12/01 04:06:23;;;;;;;;;;;;;;;;;;4914275;29;958;-61
2021/12/01 04:08:49;;;;;;;;;;;;;;;;;;4914259;29;913;-61
2021/12/01 04:11:14;;;;;;;;;;;;;;;;;;4914713;29;1915;-61
2021/12/01 04:13:39;;;;;;;;;;;;;;;;;;4914034;29;814;-62
2021/12/01 04:16:05;;;;;;;;;;;;;;;;;;4914592;29;779;-62
2021/12/01 04:18:30;;;;;;;;;;;;;;;;;;4914473;29;1043;-61
2021/12/01 04:20:55;;;;;;;;;;;;;;;;;;4914094;29;755;-61
2021/12/01 04:23:20;;;;;;;;;;;;;;;;;;4914322;29;825;-61
2021/12/01 04:25:46;;;;;;;;;;;;;;;;;;4914026;29;819;-61
2021/12/01 04:28:11;;;;;;;;;;;;;;;;;;4914231;29;976;-61
2021/12/01 04:30:37;;;;;;;;;;;;;;;;;;4913828;29;1044;-61
2021/12/01 04:33:02;;;;;;;;;;;;;;;;;;4913788;29;1886;-61
2021/12/01 04:35:28;;;;;;;;;;;;;;;;;;4912654;29;885;-62
2021/12/01 04:37:54;;;;;;;;;;;;;;;;;;4914095;29;870;-61
2021/12/01 04:40:19;;;;;;;;;;;;;;;;;;4914300;29;830;-61
2021/12/01 04:42:45;;;;;;;;;;;;;;;;;;4914077;29;890;-61
2021/12/01 04:45:14;;;;;;;;;;;;;;;;;;4914382;29;727;-61
2021/12/01 04:47:42;;;;;;;;;;;;;;;;;;4913670;29;776;-62
2021/12/01 04:50:07;;;;;;;;;;;;;;;;;;4913920;29;897;-61
2021/12/01 04:52:32;;;;;;;;;;;;;;;;;;4913080;29;1894;-61
2021/12/01 04:54:58;;;;;;;;;;;;;;;;;;4914012;29;991;-62
2021/12/01 04:57:23;;;;;;;;;;;;;;;;;;4914560;29;772;-62
2021/12/01 04:59:49;;;;;;;;;;;;;;;;;;4914163;29;879;-61
2021/12/01 05:02:14;;;;;;;;;;;;;;;;;;4914010;29;1345;-61
2021/12/01 05:04:41;;;;;;;;;;;;;;;;;;4928860;29;952;-62
2021/12/01 05:07:07;;;;;;;;;;;;;;;;;;4914417;29;850;-61
2021/12/01 05:09:32;;;;;;;;;;;;;;;;;;4913929;29;771;-61
2021/12/01 05:11:57;;;;;;;;;;;;;;;;;;4913342;29;1968;-61
2021/12/01 05:14:25;;;;;;;;;;;;;;;;;;4913911;29;794;-61
2021/12/01 05:16:50;;;;;;;;;;;;;;;;;;4913727;29;834;-61
2021/12/01 05:19:15;;;;;;;;;;;;;;;;;;4913884;29;862;-61
2021/12/01 05:21:41;;;;;;;;;;;;;;;;;;4914143;29;913;-61
2021/12/01 05:24:06;;;;;;;;;;;;;;;;;;4913756;29;842;-61
2021/12/01 05:26:32;;;;;;;;;;;;;;;;;;4913883;29;858;-61
2021/12/01 05:28:57;;;;;;;;;;;;;;;;;;4913738;29;811;-61
2021/12/01 05:31:23;;;;;;;;;;;;;;;;;;4913760;29;1898;-61
2021/12/01 05:33:48;;;;;;;;;;;;;;;;;;4913021;29;1189;-61
2021/12/01 05:36:14;;;;;;;;;;;;;;;;;;4911236;29;1232;-61
2021/12/01 05:38:39;;;;;;;;;;;;;;;;;;4906610;28;1169;-61
2021/12/01 05:41:05;;;;;;;;;;;;;;;;;;4894901;28;1122;-61
2021/12/01 05:43:31;;;;;;;;;;;;;;;;;;4895125;28;900;-61
2021/12/01 05:45:56;;;;;;;;;;;;;;;;;;4894719;29;1027;-61
2021/12/01 05:48:22;;;;;;;;;;;;;;;;;;4894836;28;854;-61
2021/12/01 05:50:47;;;;;;;;;;;;;;;;;;4895067;29;810;-61
2021/12/01 05:53:13;;;;;;;;;;;;;;;;;;4894428;28;1978;-61
2021/12/01 05:55:39;;;;;;;;;;;;;;;;;;4894446;28;1011;-61
2021/12/01 05:58:04;;;;;;;;;;;;;;;;;;4894301;28;845;-61
2021/12/01 06:00:29;;;;;;;;;;;;;;;;;;4893851;28;921;-61
2021/12/01 06:02:55;;;;;;;;;;;;;;;;;;4893602;28;1088;-61
2021/12/01 06:05:20;;;;;;;;;;;;;;;;;;4893989;28;913;-62
2021/12/01 06:07:47;;;;;;;;;;;;;;;;;;4893680;28;1004;-62
2021/12/01 06:10:12;;;;;;;;;;;;;;;;;;4893963;28;783;-62
2021/12/01 06:12:40;;;;;;;;;;;;;;;;;;4893511;28;1915;-61
2021/12/01 06:15:07;;;;;;;;;;;;;;;;;;4892866;29;850;-61
2021/12/01 06:17:33;;;;;;;;;;;;;;;;;;4891591;28;1107;-62
2021/12/01 06:19:58;;;;;;;;;;;;;;;;;;4893729;28;1051;-62
2021/12/01 06:22:23;;;;;;;;;;;;;;;;;;4893876;28;889;-62
2021/12/01 06:24:49;;;;;;;;;;;;;;;;;;4893598;28;980;-62
2021/12/01 06:27:14;;;;;;;;;;;;;;;;;;4908282;29;1004;-62
2021/12/01 06:29:39;;;;;;;;;;;;;;;;;;4893838;29;866;-61
2021/12/01 06:32:05;;;;;;;;;;;;;;;;;;4893091;28;1976;-61
2021/12/01 06:34:30;;;;;;;;;;;;;;;;;;4893295;28;826;-61
2021/12/01 06:36:55;;;;;;;;;;;;;;;;;;4893133;28;819;-61
2021/12/01 06:39:21;;;;;;;;;;;;;;;;;;4908943;28;1008;-61
2021/12/01 06:41:46;;;;;;;;;;;;;;;;;;4893900;29;811;-61
2021/12/01 06:44:12;;;;;;;;;;;;;;;;;;4893546;29;1004;-62
2021/12/01 06:46:37;;;;;;;;;;;;;;;;;;4893087;28;996;-61
2021/12/01 06:49:02;;;;;;;;;;;;;;;;;;4892865;28;993;-61
2021/12/01 06:51:28;;;;;;;;;;;;;;;;;;4893422;28;1907;-61
2021/12/01 06:53:53;;;;;;;;;;;;;;;;;;4893001;28;1143;-61
2021/12/01 06:56:19;;;;;;;;;;;;;;;;;;4893417;28;823;-61
2021/12/01 06:58:44;;;;;;;;;;;;;;;;;;4893325;28;893;-61
2021/12/01 07:01:10;;;;;;;;;;;;;;;;;;4892921;28;1297;-61
2021/12/01 07:03:35;;;;;;;;;;;;;;;;;;4905005;29;1558;-61
2021/12/01 07:06:00;;;;;;;;;;;;;;;;;;4912472;29;814;-61
2021/12/01 07:08:25;;;;;;;;;;;;;;;;;;4912726;29;799;-61
2021/12/01 07:10:51;;;;;;;;;;;;;;;;;;4912126;29;980;-61
2021/12/01 07:13:17;;;;;;;;;;;;;;;;;;4912618;29;1910;-61
2021/12/01 07:15:42;;;;;;;;;;;;;;;;;;4915273;29;936;-61
2021/12/01 07:18:08;;;;;;;;;;;;;;;;;;4915725;29;1047;-61
2021/12/01 07:20:33;;;;;;;;;;;;;;;;;;4916157;29;996;-61
2021/12/01 07:22:58;;;;;;;;;;;;;;;;;;4915778;29;976;-61
2021/12/01 07:25:24;;;;;;;;;;;;;;;;;;4915596;29;886;-61
2021/12/01 07:27:49;;;;;;;;;;;;;;;;;;4915251;29;956;-62
2021/12/01 07:30:14;;;;;;;;;;;;;;;;;;4915211;29;920;-62
2021/12/01 07:32:40;;;;;;;;;;;;;;;;;;4915258;29;1907;-62
2021/12/01 07:35:05;;;;;;;;;;;;;;;;;;4914978;29;822;-62
2021/12/01 07:37:30;;;;;;;;;;;;;;;;;;4915057;29;841;-62
2021/12/01 07:39:56;;;;;;;;;;;;;;;;;;4915007;29;975;-62
2021/12/01 07:42:22;;;;;;;;;;;;;;;;;;4915203;29;841;-62
2021/12/01 07:44:47;;;;;;;;;;;;;;;;;;4914604;29;920;-62
2021/12/01 07:47:12;;;;;;;;;;;;;;;;;;4914467;29;921;-61
2021/12/01 07:49:38;;;;;;;;;;;;;;;;;;4914323;29;837;-62
2021/12/01 07:52:05;;;;;;;;;;;;;;;;;;4914182;29;1923;-61
2021/12/01 07:54:30;;;;;;;;;;;;;;;;;;4914052;29;1026;-62
2021/12/01 07:56:56;;;;;;;;;;;;;;;;;;4914549;29;845;-62
2021/12/01 07:59:21;;;;;;;;;;;;;;;;;;4914292;29;984;-62
2021/12/01 08:01:46;;;;;;;;;;;;;;;;;;4914156;29;1143;-62
2021/12/01 08:04:12;;;;;;;;;;;;;;;;;;4914727;29;959;-62
2021/12/01 08:06:38;;;;;;;;;;;;;;;;;;4914334;29;878;-62
2021/12/01 08:09:03;;;;;;;;;;;;;;;;;;4914281;29;860;-61
2021/12/01 08:11:28;;;;;;;;;;;;;;;;;;4914569;29;2053;-62
2021/12/01 08:13:54;;;;;;;;;;;;;;;;;;4914548;29;917;-62
2021/12/01 08:16:19;;;;;;;;;;;;;;;;;;4914019;29;1096;-62
2021/12/01 08:18:49;;;;;;;;;;;;;;;;;;4914357;29;791;-62
2021/12/01 08:21:15;;;;;;;;;;;;;;;;;;4912627;29;1347;-63
2021/12/01 08:23:40;;;;;;;;;;;;;;;;;;4914148;29;609;-62
2021/12/01 08:26:05;;;;;;;;;;;;;;;;;;4912467;29;869;-62
2021/12/01 08:28:31;;;;;;;;;;;;;;;;;;4913761;29;917;-63
2021/12/01 08:30:56;;;;;;;;;;;;;;;;;;4913997;29;1001;-63
2021/12/01 08:33:21;;;;;;;;;;;;;;;;;;4914316;29;2306;-62
2021/12/01 08:35:47;;;;;;;;;;;;;;;;;;4914113;29;929;-62
2021/12/01 08:38:12;;;;;;;;;;;;;;;;;;4913962;29;873;-63
2021/12/01 08:40:37;;;;;;;;;;;;;;;;;;4912797;29;1144;-62
2021/12/01 08:43:03;;;;;;;;;;;;;;;;;;4914047;29;830;-62
2021/12/01 08:45:29;;;;;;;;;;;;;;;;;;4914586;29;987;-62
2021/12/01 08:47:54;;;;;;;;;;;;;;;;;;4928504;29;853;-62
2021/12/01 08:50:20;;;;;;;;;;;;;;;;;;4913859;29;992;-62
2021/12/01 08:52:48;;;;;;;;;;;;;;;;;;4912977;28;1902;-62
2021/12/01 08:55:13;;;;;;;;;;;;;;;;;;4913927;29;1775;-62
2021/12/01 08:57:39;;;;;;;;;;;;;;;;;;4913918;29;1008;-62
2021/12/01 09:00:05;;;;;;;;;;;;;;;;;;4914525;29;873;-62
2021/12/01 09:02:30;;;;;;;;;;;;;;;;;;4913898;29;1032;-62
2021/12/01 09:04:55;;;;;;;;;;;;;;;;;;4914280;29;826;-62
2021/12/01 09:07:21;;;;;;;;;;;;;;;;;;4913727;29;826;-62
2021/12/01 09:09:46;;;;;;;;;;;;;;;;;;4914525;29;810;-62
2021/12/01 09:12:13;;;;;;;;;;;;;;;;;;4913191;29;1958;-62
2021/12/01 09:14:39;;;;;;;;;;;;;;;;;;4913840;29;863;-62
2021/12/01 09:17:04;;;;;;;;;;;;;;;;;;4913933;29;917;-62
2021/12/01 09:19:29;;;;;;;;;;;;;;;;;;4914157;29;865;-62
2021/12/01 09:21:54;;;;;;;;;;;;;;;;;;4913956;29;964;-62
2021/12/01 09:24:21;;;;;;;;;;;;;;;;;;4913772;29;900;-62
2021/12/01 09:26:47;;;;;;;;;;;;;;;;;;4914598;29;925;-62
2021/12/01 09:29:13;;;;;;;;;;;;;;;;;;4913564;29;841;-62
2021/12/01 09:31:38;;;;;;;;;;;;;;;;;;4913586;29;1903;-62
2021/12/01 09:34:03;;;;;;;;;;;;;;;;;;4913735;29;937;-62
2021/12/01 09:36:29;;;;;;;;;;;;;;;;;;4913913;29;889;-62
2021/12/01 09:38:56;;;;;;;;;;;;;;;;;;4913198;29;969;-62
2021/12/01 09:41:21;;;;;;;;;;;;;;;;;;4912995;29;869;-62
2021/12/01 09:43:47;;;;;;;;;;;;;;;;;;4913627;29;852;-62
2021/12/01 09:46:12;;;;;;;;;;;;;;;;;;4913059;29;898;-62
2021/12/01 09:48:39;;;;;;;;;;;;;;;;;;4913486;29;878;-62
2021/12/01 09:51:05;;;;;;;;;;;;;;;;;;4913006;29;1903;-61
2021/12/01 09:53:30;;;;;;;;;;;;;;;;;;4913208;29;857;-61
2021/12/01 09:55:56;;;;;;;;;;;;;;;;;;4913614;29;925;-61
2021/12/01 09:58:24;;;;;;;;;;;;;;;;;;4912800;29;927;-61
2021/12/01 10:00:51;;;;;;;;;;;;;;;;;;4913073;29;830;-62
2021/12/01 10:03:16;;;;;;;;;;;;;;;;;;4911965;29;1097;-62
2021/12/01 10:06:03;;;;;;;;;;;;;;;;;;4926278;29;896;-62
2021/12/01 10:08:30;;;;;;;;;;;;;;;;;;4912411;29;882;-62
2021/12/01 10:10:56;;;;;;;;;;;;;;;;;;4913442;29;889;-61
2021/12/01 10:13:24;;;;;;;;;;;;;;;;;;4912449;29;1968;-61
2021/12/01 10:15:49;;;;;;;;;;;;;;;;;;4912254;29;905;-60
2021/12/01 10:18:15;;;;;;;;;;;;;;;;;;4912630;29;803;-62
2021/12/01 10:20:43;;;;;;;;;;;;;;;;;;4912644;29;822;-62
2021/12/01 10:23:13;;;;;;;;;;;;;;;;;;4912820;29;842;-62
2021/12/01 10:25:42;;;;;;;;;;;;;;;;;;4912761;29;856;-62
2021/12/01 10:28:13;;;;;;;;;;;;;;;;;;4912805;29;818;-62
2021/12/01 10:30:45;;;;;;;;;;;;;;;;;;4912698;29;851;-62
2021/12/01 10:33:12;;;;;;;;;;;;;;;;;;4912328;29;1902;-62
2021/12/01 10:35:37;;;;;;;;;;;;;;;;;;4912686;29;826;-62
2021/12/01 10:38:04;;;;;;;;;;;;;;;;;;4912829;29;968;-62
2021/12/01 10:40:29;;;;;;;;;;;;;;;;;;4912379;29;917;-62
2021/12/01 10:42:59;;;;;;;;;;;;;;;;;;4912788;29;794;-62
2021/12/01 10:45:29;;;;;;;;;;;;;;;;;;4912375;29;977;-62
2021/12/01 10:47:54;;;;;;;;;;;;;;;;;;4912784;29;931;-62
2021/12/01 10:50:21;;;;;;;;;;;;;;;;;;4911607;29;889;-62
2021/12/01 10:52:51;;;;;;;;;;;;;;;;;;4912618;29;1962;-62
2021/12/01 10:55:16;;;;;;;;;;;;;;;;;;4912796;29;888;-62
2021/12/01 10:57:43;;;;;;;;;;;;;;;;;;4912691;29;767;-62
2021/12/01 11:00:14;;;;;;;;;;;;;;;;;;4912837;29;826;-62
2021/12/01 11:02:39;;;;;;;;;;;;;;;;;;4912801;29;1189;-62
2021/12/01 11:05:05;;;;;;;;;;;;;;;;;;4913078;29;857;-62
2021/12/01 11:07:31;;;;;;;;;;;;;;;;;;4912190;29;905;-62
2021/12/01 11:10:13;;;;;;;;;;;;;;;;;;4912806;29;888;-62
2021/12/01 11:12:39;;;;;;;;;;;;;;;;;;4912566;29;1958;-62
2021/12/01 11:15:21;;;;;;;;;;;;;;;;;;4912543;29;880;-62
2021/12/01 11:17:47;;;;;;;;;;;;;;;;;;4912286;29;842;-62
2021/12/01 11:20:30;;;;;;;;;;;;;;;;;;4912202;29;819;-62
2021/12/01 11:23:05;;;;;;;;;;;;;;;;;;4912325;29;985;-62
2021/12/01 11:25:32;;;;;;;;;;;;;;;;;;4912100;29;764;-62
2021/12/01 11:27:59;;;;;;;;;;;;;;;;;;4912473;29;927;-62
2021/12/01 11:30:24;;;;;;;;;;;;;;;;;;4912417;29;833;-62
2021/12/01 11:32:49;;;;;;;;;;;;;;;;;;4911891;29;1911;-62
2021/12/01 11:35:15;;;;;;;;;;;;;;;;;;4910523;29;1185;-62
2021/12/01 11:37:41;;;;;;;;;;;;;;;;;;4910572;29;826;-62
2021/12/01 11:40:06;;;;;;;;;;;;;;;;;;4911744;29;892;-62
2021/12/01 11:42:32;;;;;;;;;;;;;;;;;;4926074;29;904;-62
2021/12/01 11:44:59;;;;;;;;;;;;;;;;;;4926195;29;916;-62
2021/12/01 11:47:25;;;;;;;;;;;;;;;;;;4911480;29;990;-62
2021/12/01 11:49:51;;;;;;;;;;;;;;;;;;4911669;29;920;-62
2021/12/01 11:52:17;;;;;;;;;;;;;;;;;;4911186;29;1906;-62
2021/12/01 11:54:45;;;;;;;;;;;;;;;;;;4911483;29;960;-62
2021/12/01 11:57:10;;;;;;;;;;;;;;;;;;4911862;29;814;-62
2021/12/01 11:59:44;;;;;;;;;;;;;;;;;;4925627;29;775;-62
2021/12/01 12:02:15;;;;;;;;;;;;;;;;;;4914253;29;1317;-62
2021/12/01 12:04:43;;;;;;;;;;;;;;;;;;4914517;29;881;-62
2021/12/01 12:07:12;;;;;;;;;;;;;;;;;;4914883;29;884;-63
2021/12/01 12:09:38;;;;;;;;;;;;;;;;;;4928887;29;767;-62
2021/12/01 12:12:07;;;;;;;;;;;;;;;;;;4914769;29;1981;-62
2021/12/01 12:14:48;;;;;;;;;;;;;;;;;;4914777;29;822;-62
2021/12/01 12:17:15;;;;;;;;;;;;;;;;;;4929256;29;897;-62
2021/12/01 12:20:08;;;;;;;;;;;;;;;;;;4914866;29;928;-62
2021/12/01 12:22:42;;;;;;;;;;;;;;;;;;4913933;29;2105;-62
2021/12/01 12:25:09;;;;;;;;;;;;;;;;;;4914659;29;841;-62
2021/12/01 12:27:38;;;;;;;;;;;;;;;;;;4914428;29;822;-62
2021/12/01 12:30:05;;;;;;;;;;;;;;;;;;4913162;29;873;-62
2021/12/01 12:32:32;;;;;;;;;;;;;;;;;;4914436;29;1956;-62
2021/12/01 12:35:00;;;;;;;;;;;;;;;;;;4914638;29;838;-62
2021/12/01 12:37:27;;;;;;;;;;;;;;;;;;4914397;29;915;-62
2021/12/01 12:39:53;;;;;;;;;;;;;;;;;;4914907;29;857;-62
2021/12/01 12:42:18;;;;;;;;;;;;;;;;;;4914783;29;980;-62
2021/12/01 12:44:45;;;;;;;;;;;;;;;;;;4914954;29;900;-62
2021/12/01 12:47:12;;;;;;;;;;;;;;;;;;4915088;28;838;-62
2021/12/01 12:49:46;;;;;;;;;;;;;;;;;;4914438;29;934;-62
2021/12/01 12:52:23;;;;;;;;;;;;;;;;;;4915226;29;1962;-62
2021/12/01 12:54:49;;;;;;;;;;;;;;;;;;4914741;29;1122;-62
2021/12/01 12:57:16;;;;;;;;;;;;;;;;;;4914971;29;940;-62
2021/12/01 12:59:41;;;;;;;;;;;;;;;;;;4913370;29;1231;-60
2021/12/01 13:02:10;;;;;;;;;;;;;;;;;;4914046;29;1948;-61
2021/12/01 13:04:48;;;;;;;;;;;;;;;;;;4914071;29;1150;-61
2021/12/01 13:07:32;;;;;;;;;;;;;;;;;;4912420;29;1545;-61
2021/12/01 13:10:23;;;;;;;;;;;;;;;;;;4914540;29;837;-61
2021/12/01 13:12:51;;;;;;;;;;;;;;;;;;4911858;29;1964;-62
2021/12/01 13:15:21;;;;;;;;;;;;;;;;;;4914183;29;759;-62
2021/12/01 13:17:47;;;;;;;;;;;;;;;;;;4914236;29;871;-61
2021/12/01 13:20:13;;;;;;;;;;;;;;;;;;4914545;29;821;-62
2021/12/01 13:22:38;;;;;;;;;;;;;;;;;;4914309;29;892;-62
2021/12/01 13:25:03;;;;;;;;;;;;;;;;;;4913918;29;895;-62
2021/12/01 13:27:41;;;;;;;;;;;;;;;;;;4914005;29;1243;-62
2021/12/01 13:30:08;;;;;;;;;;;;;;;;;;4912530;29;1694;-62
2021/12/01 13:32:33;;;;;;;;;;;;;;;;;;4913142;29;1906;-62
2021/12/01 13:34:59;;;;;;;;;;;;;;;;;;4913131;29;802;-62
2021/12/01 13:37:24;;;;;;;;;;;;;;;;;;4913023;29;1012;-62
2021/12/01 13:39:52;;;;;;;;;;;;;;;;;;4913466;29;902;-62
2021/12/01 13:42:22;;;;;;;;;;;;;;;;;;4913445;29;970;-62
2021/12/01 13:44:49;;;;;;;;;;;;;;;;;;4913200;29;850;-62
2021/12/01 13:47:19;;;;;;;;;;;;;;;;;;4913538;29;842;-62
2021/12/01 13:49:48;;;;;;;;;;;;;;;;;;4913261;29;756;-62
2021/12/01 13:52:30;;;;;;;;;;;;;;;;;;4913087;29;1895;-62
2021/12/01 13:55:12;;;;;;;;;;;;;;;;;;4912881;29;990;-62
2021/12/01 13:57:38;;;;;;;;;;;;;;;;;;4912876;29;790;-62
2021/12/01 14:00:04;;;;;;;;;;;;;;;;;;4927654;29;992;-62
2021/12/01 14:02:30;;;;;;;;;;;;;;;;;;4912672;29;1076;-62
2021/12/01 14:04:57;;;;;;;;;;;;;;;;;;4913130;29;956;-61
2021/12/01 14:07:23;;;;;;;;;;;;;;;;;;4915709;29;992;-61
2021/12/01 14:09:57;;;;;;;;;;;;;;;;;;4915728;29;862;-61
2021/12/01 14:12:24;;;;;;;;;;;;;;;;;;4913445;29;1899;-61
2021/12/01 14:14:49;;;;;;;;;;;;;;;;;;4911386;29;1439;-61
2021/12/01 14:17:15;;;;;;;;;;;;;;;;;;4913236;29;842;-62
2021/12/01 14:19:40;;;;;;;;;;;;;;;;;;4912794;29;1039;-61
2021/12/01 14:22:24;;;;;;;;;;;;;;;;;;4913255;29;909;-62
2021/12/01 14:24:52;;;;;;;;;;;;;;;;;;4912564;29;838;-61
2021/12/01 14:27:23;;;;;;;;;;;;;;;;;;4913030;29;838;-62
2021/12/01 14:29:49;;;;;;;;;;;;;;;;;;4912865;29;943;-63
2021/12/01 14:32:14;;;;;;;;;;;;;;;;;;4913655;29;1948;-62
2021/12/01 14:34:40;;;;;;;;;;;;;;;;;;4911745;29;818;-62
2021/12/01 14:37:09;;;;;;;;;;;;;;;;;;4913354;29;1066;-62
2021/12/01 14:39:35;;;;;;;;;;;;;;;;;;4912195;29;881;-62
2021/12/01 14:42:01;;;;;;;;;;;;;;;;;;4913004;29;836;-62
2021/12/01 14:44:28;;;;;;;;;;;;;;;;;;4913035;29;817;-62
2021/12/01 14:46:58;;;;;;;;;;;;;;;;;;4912824;29;881;-62
2021/12/01 14:49:25;;;;;;;;;;;;;;;;;;4927384;29;842;-62
2021/12/01 14:51:52;;;;;;;;;;;;;;;;;;4912525;29;1899;-63
2021/12/01 14:54:24;;;;;;;;;;;;;;;;;;4913035;29;945;-62
2021/12/01 14:56:58;;;;;;;;;;;;;;;;;;4911192;29;1104;-63
2021/12/01 14:59:24;;;;;;;;;;;;;;;;;;4912553;29;807;-63
2021/12/01 15:02:08;;;;;;;;;;;;;;;;;;4910674;29;1663;-63
2021/12/01 15:04:33;;;;;;;;;;;;;;;;;;4911352;29;861;-62
2021/12/01 15:06:59;;;;;;;;;;;;;;;;;;4912124;29;909;-62
2021/12/01 15:09:37;;;;;;;;;;;;;;;;;;4926916;29;810;-62
2021/12/01 15:12:02;;;;;;;;;;;;;;;;;;4910912;29;1971;-63
2021/12/01 15:14:29;;;;;;;;;;;;;;;;;;4910713;29;1082;-62
2021/12/01 15:16:54;;;;;;;;;;;;;;;;;;4910624;29;1130;-61
2021/12/01 15:19:23;;;;;;;;;;;;;;;;;;4925194;29;1287;-62
2021/12/01 15:21:50;;;;;;;;;;;;;;;;;;4911858;29;833;-62
2021/12/01 15:24:17;;;;;;;;;;;;;;;;;;4912129;29;818;-62
2021/12/01 15:26:46;;;;;;;;;;;;;;;;;;4926260;29;829;-62
2021/12/01 15:29:20;;;;;;;;;;;;;;;;;;4926417;29;935;-62
2021/12/01 15:32:04;;;;;;;;;;;;;;;;;;4910513;29;1902;-62
2021/12/01 15:34:30;;;;;;;;;;;;;;;;;;4911737;29;1059;-62
2021/12/01 15:36:55;;;;;;;;;;;;;;;;;;4915062;29;811;-62
2021/12/01 15:39:23;;;;;;;;;;;;;;;;;;4915452;29;873;-62
2021/12/01 15:41:50;;;;;;;;;;;;;;;;;;4915279;29;849;-62
2021/12/01 15:44:16;;;;;;;;;;;;;;;;;;4915258;29;822;-62
2021/12/01 15:46:42;;;;;;;;;;;;;;;;;;4906255;28;2882;-62
2021/12/01 15:49:08;;;;;;;;;;;;;;;;;;4907620;28;3756;-62
2021/12/01 15:51:33;;;;;;;;;;;;;;;;;;4929758;29;1956;-62
2021/12/01 15:53:58;;;;;;;;;;;;;;;;;;4897280;29;3082;-62
2021/12/01 15:56:24;;;;;;;;;;;;;;;;;;4896099;29;901;-62
2021/12/01 15:58:49;;;;;;;;;;;;;;;;;;4915868;29;1086;-62
2021/12/01 16:01:15;;;;;;;;;;;;;;;;;;4912797;29;2478;-62
2021/12/01 16:03:41;;;;;;;;;;;;;;;;;;4913531;29;2731;-62
2021/12/01 16:06:06;;;;;;;;;;;;;;;;;;4915791;29;960;-62
2021/12/01 16:08:31;;;;;;;;;;;;;;;;;;4915054;29;854;-62
2021/12/01 16:10:58;;;;;;;;;;;;;;;;;;4915052;29;874;-62
2021/12/01 16:13:24;;;;;;;;;;;;;;;;;;4915093;29;1919;-62
2021/12/01 16:15:49;;;;;;;;;;;;;;;;;;4915432;29;905;-62
2021/12/01 16:18:14;;;;;;;;;;;;;;;;;;4915558;29;849;-64
2021/12/01 16:20:41;;;;;;;;;;;;;;;;;;4913752;29;1706;-61
2021/12/01 16:23:06;;;;;;;;;;;;;;;;;;4915482;29;837;-61
2021/12/01 16:25:32;;;;;;;;;;;;;;;;;;4915159;29;811;-62
2021/12/01 16:27:57;;;;;;;;;;;;;;;;;;4914755;29;924;-61
2021/12/01 16:30:24;;;;;;;;;;;;;;;;;;4915339;29;825;-62
2021/12/01 16:32:51;;;;;;;;;;;;;;;;;;4914997;29;1972;-62
2021/12/01 16:35:23;;;;;;;;;;;;;;;;;;4913598;29;1750;-62
2021/12/01 16:37:49;;;;;;;;;;;;;;;;;;4914464;29;909;-62
2021/12/01 16:40:15;;;;;;;;;;;;;;;;;;4914159;29;1164;-62
2021/12/01 16:42:41;;;;;;;;;;;;;;;;;;4914581;29;897;-62
2021/12/01 16:45:07;;;;;;;;;;;;;;;;;;4915113;29;848;-62
2021/12/01 16:47:32;;;;;;;;;;;;;;;;;;4913367;29;877;-62
2021/12/01 16:49:59;;;;;;;;;;;;;;;;;;4914635;29;834;-62
2021/12/01 16:52:26;;;;;;;;;;;;;;;;;;4914503;29;1898;-62
2021/12/01 16:54:52;;;;;;;;;;;;;;;;;;4914552;29;1175;-62
2021/12/01 16:57:17;;;;;;;;;;;;;;;;;;4914799;29;1170;-62
2021/12/01 16:59:44;;;;;;;;;;;;;;;;;;4912911;29;858;-62
2021/12/01 17:02:10;;;;;;;;;;;;;;;;;;4914814;29;1199;-62
2021/12/01 17:04:38;;;;;;;;;;;;;;;;;;4914939;29;870;-61
2021/12/01 17:09:48;;;;;;;;;;;;;;;;;;4914380;29;880;-62
2021/12/01 17:12:14;;;;;;;;;;;;;;;;;;4914286;29;1988;-62
2021/12/01 17:14:42;;;;;;;;;;;;;;;;;;4914309;29;964;-62
2021/12/01 17:17:08;;;;;;;;;;;;;;;;;;4914328;29;930;-62
2021/12/01 17:19:33;;;;;;;;;;;;;;;;;;4912797;29;953;-63
2021/12/01 17:21:59;;;;;;;;;;;;;;;;;;4913869;29;810;-61